KCLW/CLW METAR and TAF weather

Enter ICAO airport designator
Station Type Date Time Source
KCLW METAR 2023/02/05 14:35 UTC NOAA

KCLW 051435Z AUTO 08006KT 10SM CLR 18/13 A3023 RMK AO2


Station Type Date Time Source
KCLW Decoded METAR 2023/02/05 14:35 UTC NOAA

Station name not available
Feb 05, 2023 - 09:35 AM EST / 2023.02.05 1435 UTC
Wind: from the E (080 degrees) at 7 MPH (6 KT):0
Visibility: 10 mile(s):0
Sky conditions: clear
Temperature: 64 F (18 C)
Dew Point: 55 F (13 C)
Relative Humidity: 72%
Pressure (altimeter): 30.23 in. Hg (1023 hPa)
ob: KCLW 051435Z AUTO 08006KT 10SM CLR 18/13 A3023 RMK AO2
cycle: 14

Station Type Date Time Source
KCLW TAF UTC NOAA

Error!

Example: see airport list